createdAt,value
2017-07-31T00:01:24.507Z,4.43
2017-07-31T00:03:53.575Z,3.90
2017-07-31T00:06:22.631Z,3.40
2017-07-31T00:08:51.678Z,3.00
2017-07-31T00:11:20.740Z,3.43
2017-07-31T00:13:49.847Z,3.47
2017-07-31T00:16:19.037Z,3.33
2017-07-31T00:18:48.079Z,3.70
2017-07-31T00:21:17.138Z,3.40
2017-07-31T00:23:46.217Z,3.20
2017-07-31T00:26:15.514Z,3.50
2017-07-31T00:28:44.592Z,3.80
2017-07-31T00:31:13.712Z,4.20
2017-07-31T00:33:42.815Z,3.50
2017-07-31T00:36:11.872Z,3.93
2017-07-31T00:38:40.928Z,3.60
2017-07-31T00:41:09.977Z,3.63
2017-07-31T00:43:39.039Z,4.07
2017-07-31T00:46:08.079Z,3.80
2017-07-31T00:48:37.146Z,4.30
2017-07-31T00:51:06.179Z,3.90
2017-07-31T00:53:35.249Z,3.70
2017-07-31T00:56:04.363Z,3.87
2017-07-31T00:58:33.423Z,3.73
2017-07-31T01:01:02.704Z,4.07
2017-07-31T01:03:31.782Z,3.87
2017-07-31T01:06:00.867Z,3.40
2017-07-31T01:08:29.877Z,3.30
2017-07-31T01:10:58.935Z,3.40
2017-07-31T01:13:28.023Z,4.00
2017-07-31T01:15:57.085Z,3.60
2017-07-31T01:18:26.344Z,3.60
2017-07-31T01:20:55.380Z,3.80
2017-07-31T01:23:24.450Z,3.40
2017-07-31T01:25:53.529Z,3.47
2017-07-31T01:28:22.598Z,3.30
2017-07-31T01:30:51.670Z,3.60
2017-07-31T01:33:20.751Z,3.87
2017-07-31T01:35:49.826Z,3.80
2017-07-31T01:38:18.867Z,3.83
2017-07-31T01:40:47.933Z,4.43
2017-07-31T01:43:17.002Z,3.93
2017-07-31T01:45:46.071Z,3.60
2017-07-31T01:48:15.144Z,4.03
2017-07-31T01:50:44.194Z,3.60
2017-07-31T01:53:13.265Z,4.27
2017-07-31T01:55:42.324Z,3.57
2017-07-31T01:58:11.385Z,4.00
2017-07-31T02:00:40.453Z,4.20
2017-07-31T02:03:09.552Z,4.20
2017-07-31T02:05:38.621Z,4.33
2017-07-31T02:08:07.943Z,4.30
2017-07-31T02:10:37.001Z,4.37
2017-07-31T02:13:06.067Z,3.60
2017-07-31T02:15:35.163Z,3.70
2017-07-31T02:18:04.364Z,4.00
2017-07-31T02:20:33.552Z,4.00
2017-07-31T02:23:02.614Z,3.57
2017-07-31T02:25:31.647Z,4.03
2017-07-31T02:28:00.734Z,4.03
2017-07-31T02:30:29.759Z,4.20
2017-07-31T02:32:58.834Z,5.07
2017-07-31T02:35:27.872Z,4.90
2017-07-31T02:37:56.939Z,4.40
2017-07-31T02:40:26.014Z,4.83
2017-07-31T02:42:55.072Z,4.07
2017-07-31T02:45:24.155Z,4.50
2017-07-31T02:47:53.198Z,4.80
2017-07-31T02:50:22.271Z,4.70
2017-07-31T02:52:51.337Z,4.67
2017-07-31T02:55:20.652Z,5.00
2017-07-31T02:57:49.690Z,5.30
2017-07-31T03:00:18.755Z,5.30
2017-07-31T03:02:48.009Z,5.40
2017-07-31T03:05:17.050Z,5.83
2017-07-31T03:07:46.108Z,5.27
2017-07-31T03:10:15.178Z,5.00
2017-07-31T03:12:44.221Z,5.00
2017-07-31T03:15:13.311Z,4.80
2017-07-31T03:17:42.381Z,5.50
2017-07-31T03:20:11.439Z,4.60
2017-07-31T03:22:41.143Z,5.37
2017-07-31T03:25:10.218Z,4.77
2017-07-31T03:27:39.273Z,4.77
2017-07-31T03:30:08.357Z,4.53
2017-07-31T03:32:37.382Z,4.37
2017-07-31T03:35:06.484Z,4.63
2017-07-31T03:37:35.518Z,5.30
2017-07-31T03:40:04.616Z,4.30
2017-07-31T03:42:33.671Z,4.27
2017-07-31T03:45:02.966Z,4.23
2017-07-31T03:47:31.994Z,4.30
2017-07-31T03:50:01.063Z,4.90
2017-07-31T03:52:30.107Z,4.47
2017-07-31T03:54:59.194Z,5.07
2017-07-31T03:57:28.444Z,4.40
2017-07-31T03:59:57.532Z,4.90
2017-07-31T04:02:26.624Z,4.10
2017-07-31T04:04:55.696Z,4.80
2017-07-31T04:07:24.755Z,5.03
2017-07-31T04:09:53.804Z,5.30
2017-07-31T04:12:22.930Z,4.90
2017-07-31T04:14:51.984Z,4.43
2017-07-31T04:17:21.033Z,4.77
2017-07-31T04:19:50.094Z,5.03
2017-07-31T04:22:19.168Z,4.27
2017-07-31T04:24:48.227Z,4.00
2017-07-31T04:27:17.296Z,3.80
2017-07-31T04:29:46.364Z,4.37
2017-07-31T04:32:15.640Z,4.23
2017-07-31T04:34:44.679Z,4.37
2017-07-31T04:37:13.747Z,3.93
2017-07-31T04:39:42.828Z,4.07
2017-07-31T04:42:11.890Z,4.10
2017-07-31T04:44:40.953Z,4.10
2017-07-31T04:47:10.034Z,3.60
2017-07-31T04:49:39.047Z,3.20
2017-07-31T04:52:08.144Z,3.90
2017-07-31T04:54:37.184Z,4.00
2017-07-31T04:57:06.239Z,4.03
2017-07-31T04:59:35.299Z,3.43
2017-07-31T05:02:04.388Z,3.33
2017-07-31T05:04:33.431Z,4.10
2017-07-31T05:07:02.496Z,4.37
2017-07-31T05:09:31.551Z,3.80
2017-07-31T05:12:00.600Z,4.17
2017-07-31T05:14:29.640Z,4.17
2017-07-31T05:16:58.720Z,4.23
2017-07-31T05:19:27.771Z,4.17
2017-07-31T05:21:56.817Z,4.10
2017-07-31T05:24:25.872Z,4.23
2017-07-31T05:26:54.946Z,3.90
2017-07-31T05:29:24.044Z,4.23
2017-07-31T05:31:53.134Z,4.30
2017-07-31T05:34:22.152Z,3.90
2017-07-31T05:36:51.223Z,5.23
2017-07-31T05:39:20.313Z,4.20
2017-07-31T05:41:49.347Z,5.33
2017-07-31T05:44:18.420Z,4.60
2017-07-31T05:46:47.483Z,4.63
2017-07-31T05:49:16.564Z,4.83
2017-07-31T05:51:45.604Z,4.73
2017-07-31T05:54:14.748Z,4.43
2017-07-31T05:56:43.831Z,5.07
2017-07-31T05:59:12.884Z,5.00
2017-07-31T06:01:41.965Z,4.90
2017-07-31T06:04:11.055Z,5.00
2017-07-31T06:06:40.118Z,4.20
2017-07-31T06:09:09.175Z,4.70
2017-07-31T06:11:38.226Z,4.40
2017-07-31T06:14:07.337Z,4.47
2017-07-31T06:16:36.364Z,3.90
2017-07-31T06:19:05.430Z,3.77
2017-07-31T06:21:34.467Z,4.13
2017-07-31T06:24:03.564Z,2.97
2017-07-31T06:26:32.607Z,3.80
2017-07-31T06:29:01.696Z,3.10
2017-07-31T06:31:30.751Z,3.03
2017-07-31T06:33:59.784Z,2.80
2017-07-31T06:36:28.846Z,3.30
2017-07-31T06:38:57.912Z,3.13
2017-07-31T06:41:26.975Z,2.57
2017-07-31T06:43:56.057Z,2.80
2017-07-31T06:46:25.108Z,3.10
2017-07-31T06:48:54.160Z,3.03
2017-07-31T06:51:23.216Z,2.77
2017-07-31T06:53:52.517Z,2.93
2017-07-31T06:56:21.564Z,3.47
2017-07-31T06:58:50.618Z,2.93
2017-07-31T07:01:19.663Z,2.73
2017-07-31T07:03:48.722Z,3.73
2017-07-31T07:06:17.798Z,2.90
2017-07-31T07:08:46.844Z,2.83
2017-07-31T07:11:15.907Z,2.60
2017-07-31T07:13:45.173Z,3.17
2017-07-31T07:16:14.225Z,3.20
2017-07-31T07:18:43.285Z,2.87
2017-07-31T07:21:12.366Z,2.70
2017-07-31T07:23:41.396Z,2.60
2017-07-31T07:26:10.485Z,2.30
2017-07-31T07:28:39.565Z,2.83
2017-07-31T07:31:08.596Z,2.30
2017-07-31T07:33:37.664Z,3.07
2017-07-31T07:36:06.701Z,2.20
2017-07-31T07:38:35.792Z,1.97
2017-07-31T07:41:04.906Z,2.53
2017-07-31T07:43:33.966Z,1.77
2017-07-31T07:46:03.028Z,2.63
2017-07-31T07:48:32.092Z,1.87
2017-07-31T07:51:01.147Z,2.20
2017-07-31T07:53:30.187Z,1.90
2017-07-31T07:55:59.271Z,2.27
2017-07-31T07:58:28.325Z,1.90
2017-07-31T08:00:57.374Z,2.10
2017-07-31T08:03:26.412Z,2.20
2017-07-31T08:05:55.477Z,2.10
2017-07-31T08:08:24.540Z,2.27
2017-07-31T08:10:53.588Z,2.07
2017-07-31T08:13:22.663Z,2.53
2017-07-31T08:15:51.711Z,2.00
2017-07-31T08:18:20.775Z,1.90
2017-07-31T08:20:49.827Z,1.70
2017-07-31T08:23:18.914Z,2.20
2017-07-31T08:25:47.976Z,1.70
2017-07-31T08:28:17.043Z,2.10
2017-07-31T08:30:46.130Z,1.93
2017-07-31T08:33:15.215Z,2.03
2017-07-31T08:35:44.264Z,1.83
2017-07-31T08:38:13.379Z,1.90
2017-07-31T08:40:42.433Z,1.60
2017-07-31T08:43:11.511Z,1.83
2017-07-31T08:45:40.559Z,1.83
2017-07-31T08:48:09.700Z,2.00
2017-07-31T08:50:38.793Z,1.77
2017-07-31T08:53:07.835Z,1.83
2017-07-31T08:55:36.906Z,2.10
2017-07-31T08:58:05.982Z,1.87
2017-07-31T09:00:35.053Z,1.63
2017-07-31T09:03:04.358Z,1.80
2017-07-31T09:05:33.387Z,2.10
2017-07-31T09:08:02.470Z,1.80
2017-07-31T09:10:31.530Z,1.60
2017-07-31T09:13:00.596Z,1.97
2017-07-31T09:15:29.670Z,2.50
2017-07-31T09:17:58.735Z,1.80
2017-07-31T09:20:27.805Z,1.90
2017-07-31T09:22:56.867Z,1.90
2017-07-31T09:25:25.941Z,1.90
2017-07-31T09:27:54.982Z,1.77
2017-07-31T09:30:24.056Z,1.63
2017-07-31T09:32:53.115Z,1.90
2017-07-31T09:35:22.216Z,1.87
2017-07-31T09:37:51.289Z,2.43
2017-07-31T09:40:20.329Z,1.93
2017-07-31T09:42:49.431Z,1.90
2017-07-31T09:45:18.664Z,1.97
2017-07-31T09:47:47.786Z,2.27
2017-07-31T09:50:16.856Z,2.63
2017-07-31T09:52:45.907Z,2.50
2017-07-31T09:55:15.010Z,2.00
2017-07-31T09:57:44.099Z,1.80
2017-07-31T10:00:13.157Z,2.17
2017-07-31T10:02:42.224Z,1.90
2017-07-31T10:05:11.290Z,2.10
2017-07-31T10:07:40.359Z,1.97
2017-07-31T10:10:09.462Z,2.00
2017-07-31T10:12:38.514Z,2.23
2017-07-31T10:15:07.602Z,1.90
2017-07-31T10:17:36.632Z,1.73
2017-07-31T10:20:05.748Z,1.90
2017-07-31T10:22:34.772Z,1.80
2017-07-31T10:25:03.843Z,1.80
2017-07-31T10:27:32.936Z,2.50
2017-07-31T10:30:02.256Z,1.90
2017-07-31T10:32:31.315Z,1.60
2017-07-31T10:35:00.381Z,1.53
2017-07-31T10:37:29.421Z,1.50
2017-07-31T10:39:58.487Z,1.17
2017-07-31T10:42:27.535Z,1.20
2017-07-31T10:44:56.592Z,1.30
2017-07-31T10:47:25.637Z,1.43
2017-07-31T10:49:54.704Z,1.40
2017-07-31T10:52:23.751Z,1.60
2017-07-31T10:54:52.812Z,1.00
2017-07-31T10:57:21.847Z,1.40
2017-07-31T10:59:50.918Z,1.50
2017-07-31T11:02:19.953Z,1.17
2017-07-31T11:04:48.993Z,1.10
2017-07-31T11:07:18.056Z,1.20
2017-07-31T11:09:47.113Z,1.00
2017-07-31T11:12:16.171Z,1.17
2017-07-31T11:14:45.219Z,1.20
2017-07-31T11:17:14.554Z,1.10
2017-07-31T11:19:43.698Z,1.27
2017-07-31T11:22:13.366Z,1.20
2017-07-31T11:24:42.445Z,0.90
2017-07-31T11:27:11.496Z,0.80
2017-07-31T11:29:40.550Z,1.10
2017-07-31T11:32:09.638Z,0.90
2017-07-31T11:34:38.742Z,1.93
2017-07-31T11:37:08.049Z,1.20
2017-07-31T11:39:37.106Z,1.10
2017-07-31T11:42:06.294Z,1.37
2017-07-31T11:44:35.316Z,1.00
2017-07-31T11:47:04.647Z,1.50
2017-07-31T11:49:33.692Z,1.20
2017-07-31T11:52:02.781Z,1.53
2017-07-31T11:54:31.812Z,1.33
2017-07-31T11:57:00.844Z,1.03
2017-07-31T11:59:29.896Z,1.10
2017-07-31T12:01:58.952Z,0.93
2017-07-31T12:04:28.278Z,1.20
2017-07-31T12:06:57.324Z,1.03
2017-07-31T12:09:26.343Z,1.20
2017-07-31T12:11:55.636Z,1.23
2017-07-31T12:14:24.684Z,1.00
2017-07-31T12:16:53.888Z,1.33
2017-07-31T12:19:22.968Z,1.10
2017-07-31T12:21:52.012Z,1.60
2017-07-31T12:24:21.068Z,1.30
2017-07-31T12:26:50.183Z,1.20
2017-07-31T12:29:19.234Z,1.30
2017-07-31T12:31:48.312Z,1.10
2017-07-31T12:34:17.366Z,1.47
2017-07-31T12:36:46.412Z,1.13
2017-07-31T12:39:15.506Z,1.70
2017-07-31T12:41:44.536Z,1.10
2017-07-31T12:44:13.621Z,1.10
2017-07-31T12:46:42.664Z,1.17
2017-07-31T12:49:11.729Z,1.70
2017-07-31T12:51:40.793Z,1.43
2017-07-31T12:54:09.845Z,1.20
2017-07-31T12:56:39.117Z,1.50
2017-07-31T12:59:08.163Z,1.10
2017-07-31T13:01:37.224Z,1.30
2017-07-31T13:04:06.324Z,1.43
2017-07-31T13:06:35.338Z,1.60
2017-07-31T13:09:04.383Z,1.40
2017-07-31T13:11:33.478Z,1.13
2017-07-31T13:14:03.413Z,1.40
2017-07-31T13:16:32.488Z,1.10
2017-07-31T13:19:01.531Z,1.10
2017-07-31T13:21:30.595Z,1.13
2017-07-31T13:23:59.680Z,1.17
2017-07-31T13:26:28.727Z,1.00
2017-07-31T13:28:57.832Z,1.20
2017-07-31T13:31:26.865Z,1.10
2017-07-31T13:33:55.928Z,1.10
2017-07-31T13:36:24.994Z,1.30
2017-07-31T13:38:54.063Z,1.47
2017-07-31T13:41:23.143Z,0.93
2017-07-31T13:43:52.209Z,1.50
2017-07-31T13:46:21.262Z,1.73
2017-07-31T13:48:50.311Z,1.17
2017-07-31T13:51:19.364Z,1.30
2017-07-31T13:53:48.447Z,1.33
2017-07-31T13:56:17.531Z,1.30
2017-07-31T13:58:46.600Z,1.60
2017-07-31T14:01:15.660Z,1.10
2017-07-31T14:03:44.703Z,1.40
2017-07-31T14:06:13.791Z,1.20
2017-07-31T14:08:42.848Z,1.30
2017-07-31T14:11:11.917Z,1.47
2017-07-31T14:13:40.961Z,1.80
2017-07-31T14:16:10.058Z,1.63
2017-07-31T14:18:39.123Z,1.47
2017-07-31T14:21:08.166Z,1.73
2017-07-31T14:23:37.253Z,1.40
2017-07-31T14:26:06.595Z,1.63
2017-07-31T14:28:35.663Z,2.00
2017-07-31T14:31:04.729Z,1.57
2017-07-31T14:33:33.772Z,1.20
2017-07-31T14:36:02.851Z,1.23
2017-07-31T14:38:31.896Z,2.03
2017-07-31T14:41:01.232Z,1.67
2017-07-31T14:43:30.269Z,1.37
2017-07-31T14:45:59.465Z,1.70
2017-07-31T14:48:28.522Z,1.40
2017-07-31T14:50:57.571Z,1.27
2017-07-31T14:53:26.658Z,1.70
2017-07-31T14:55:55.703Z,1.33
2017-07-31T14:58:24.756Z,1.30
2017-07-31T15:00:53.849Z,1.73
2017-07-31T15:03:22.899Z,1.20
2017-07-31T15:05:51.970Z,1.47
2017-07-31T15:08:21.031Z,1.10
2017-07-31T15:10:50.088Z,1.37
2017-07-31T15:13:19.139Z,1.33
2017-07-31T15:15:48.233Z,1.70
2017-07-31T15:18:17.316Z,1.40
2017-07-31T15:20:46.382Z,1.30
2017-07-31T15:23:15.442Z,1.40
2017-07-31T15:25:44.536Z,1.50
2017-07-31T15:28:13.616Z,1.33
2017-07-31T15:30:42.694Z,1.33
2017-07-31T15:33:11.782Z,1.77
2017-07-31T15:35:40.846Z,1.27
2017-07-31T15:38:09.932Z,2.17
2017-07-31T15:40:38.996Z,1.60
2017-07-31T15:43:08.051Z,1.60
2017-07-31T15:45:37.285Z,1.27
2017-07-31T15:48:06.343Z,1.33
2017-07-31T15:50:35.379Z,1.40
2017-07-31T15:53:04.451Z,1.53
2017-07-31T15:55:33.545Z,1.80
2017-07-31T15:58:02.605Z,1.00
2017-07-31T16:00:31.648Z,1.33
2017-07-31T16:03:00.712Z,1.70
2017-07-31T16:05:29.792Z,1.60
2017-07-31T16:07:58.866Z,1.50
2017-07-31T16:10:27.935Z,1.60
2017-07-31T16:12:57.021Z,1.40
2017-07-31T16:15:26.076Z,1.40
2017-07-31T16:17:55.134Z,1.13
2017-07-31T16:20:24.187Z,1.60
2017-07-31T16:22:53.240Z,1.43
2017-07-31T16:25:22.296Z,1.37
2017-07-31T16:27:51.356Z,1.33
2017-07-31T16:30:20.439Z,1.27
2017-07-31T16:32:49.531Z,1.30
2017-07-31T16:35:18.590Z,1.50
2017-07-31T16:37:47.716Z,1.13
2017-07-31T16:40:34.340Z,1.50
2017-07-31T16:43:20.940Z,1.40
2017-07-31T16:45:50.004Z,1.23
2017-07-31T16:48:30.784Z,1.53
2017-07-31T16:50:59.885Z,1.47
2017-07-31T16:53:28.936Z,1.40
2017-07-31T16:55:57.983Z,1.10
2017-07-31T16:58:27.075Z,1.57
2017-07-31T17:00:56.177Z,1.43
2017-07-31T17:03:25.203Z,1.50
2017-07-31T17:05:54.304Z,1.30
2017-07-31T17:08:23.436Z,1.47
2017-07-31T17:10:52.496Z,1.60
2017-07-31T17:13:21.547Z,1.43
2017-07-31T17:15:50.636Z,1.30
2017-07-31T17:18:19.705Z,1.30
2017-07-31T17:20:48.772Z,1.30
2017-07-31T17:23:17.824Z,1.30
2017-07-31T17:25:46.916Z,1.33
2017-07-31T17:28:15.923Z,1.33
2017-07-31T17:30:44.996Z,1.90
2017-07-31T17:33:14.321Z,1.80
2017-07-31T17:35:43.378Z,1.43
2017-07-31T17:38:12.492Z,2.07
2017-07-31T17:40:41.531Z,1.60
2017-07-31T17:43:10.838Z,3.00
2017-07-31T17:45:39.888Z,2.03
2017-07-31T17:48:08.963Z,1.50
2017-07-31T17:50:38.032Z,1.60
2017-07-31T17:53:07.116Z,1.70
2017-07-31T17:55:36.184Z,1.40
2017-07-31T17:58:05.285Z,1.80
2017-07-31T18:00:34.343Z,1.80
2017-07-31T18:03:03.434Z,1.80
2017-07-31T18:05:32.490Z,1.67
2017-07-31T18:08:01.573Z,1.60
2017-07-31T18:10:30.644Z,1.77
2017-07-31T18:12:59.715Z,1.53
2017-07-31T18:15:28.776Z,1.53
2017-07-31T18:17:57.859Z,1.60
2017-07-31T18:20:26.923Z,2.23
2017-07-31T18:22:55.985Z,1.33
2017-07-31T18:25:25.067Z,1.33
2017-07-31T18:27:54.126Z,1.73
2017-07-31T18:30:23.237Z,1.40
2017-07-31T18:32:52.292Z,1.87
2017-07-31T18:35:21.362Z,1.90
2017-07-31T18:37:50.422Z,1.50
2017-07-31T18:40:19.455Z,1.77
2017-07-31T18:42:48.523Z,1.50
2017-07-31T18:45:18.117Z,1.77
2017-07-31T18:47:47.171Z,2.10
2017-07-31T18:50:16.224Z,2.20
2017-07-31T18:52:45.302Z,2.17
2017-07-31T18:55:14.370Z,2.00
2017-07-31T18:57:44.304Z,2.50
2017-07-31T19:00:13.369Z,1.93
2017-07-31T19:02:42.428Z,2.97
2017-07-31T19:05:11.608Z,2.20
2017-07-31T19:07:40.707Z,1.60
2017-07-31T19:10:09.780Z,2.30
2017-07-31T19:12:38.824Z,2.77
2017-07-31T19:15:07.928Z,2.20
2017-07-31T19:17:36.982Z,2.23
2017-07-31T19:20:06.053Z,1.90
2017-07-31T19:22:35.476Z,2.40
2017-07-31T19:25:04.509Z,2.37
2017-07-31T19:27:33.551Z,2.87
2017-07-31T19:30:02.637Z,2.40
2017-07-31T19:32:31.677Z,1.87
2017-07-31T19:35:00.741Z,2.53
2017-07-31T19:37:29.874Z,2.70
2017-07-31T19:39:58.904Z,2.20
2017-07-31T19:42:27.946Z,2.23
2017-07-31T19:44:57.033Z,2.00
2017-07-31T19:47:26.095Z,2.60
2017-07-31T19:49:55.160Z,2.60
2017-07-31T19:52:24.208Z,2.00
2017-07-31T19:54:53.314Z,1.97
2017-07-31T19:57:22.355Z,2.57
2017-07-31T19:59:51.426Z,2.40
2017-07-31T20:02:20.489Z,2.37
2017-07-31T20:04:50.181Z,2.00
2017-07-31T20:07:19.250Z,2.30
2017-07-31T20:09:48.321Z,2.83
2017-07-31T20:12:17.374Z,2.60
2017-07-31T20:14:46.441Z,2.57
2017-07-31T20:17:15.689Z,2.63
2017-07-31T20:19:44.769Z,2.90
2017-07-31T20:22:13.831Z,2.47
2017-07-31T20:24:42.879Z,2.40
2017-07-31T20:27:11.950Z,3.13
2017-07-31T20:29:41.043Z,2.87
2017-07-31T20:32:10.127Z,2.47
2017-07-31T20:34:39.215Z,3.07
2017-07-31T20:37:08.315Z,2.73
2017-07-31T20:39:37.363Z,2.70
2017-07-31T20:42:06.462Z,2.57
2017-07-31T20:44:35.515Z,2.43
2017-07-31T20:47:04.829Z,2.20
2017-07-31T20:49:33.920Z,1.80
2017-07-31T20:52:02.973Z,2.53
2017-07-31T20:54:32.048Z,2.50
2017-07-31T20:57:01.116Z,2.50
2017-07-31T20:59:30.224Z,2.60
2017-07-31T21:01:59.264Z,2.00
2017-07-31T21:04:28.359Z,2.80
2017-07-31T21:06:57.411Z,2.47
2017-07-31T21:09:26.489Z,2.40
2017-07-31T21:11:55.554Z,2.20
2017-07-31T21:14:24.600Z,2.63
2017-07-31T21:16:53.675Z,2.20
2017-07-31T21:19:22.728Z,2.20
2017-07-31T21:21:51.805Z,2.30
2017-07-31T21:24:20.893Z,2.53
2017-07-31T21:26:49.970Z,2.10
2017-07-31T21:29:19.031Z,2.00
2017-07-31T21:31:48.085Z,2.13
2017-07-31T21:34:17.173Z,2.10
2017-07-31T21:36:46.263Z,2.13
2017-07-31T21:39:15.319Z,2.37
2017-07-31T21:41:44.387Z,2.70
2017-07-31T21:44:13.488Z,2.20
2017-07-31T21:46:42.573Z,3.10
2017-07-31T21:49:11.655Z,2.73
2017-07-31T21:51:40.698Z,2.43
2017-07-31T21:54:09.800Z,2.30
2017-07-31T21:56:38.854Z,3.13
2017-07-31T21:59:07.911Z,2.70
2017-07-31T22:01:36.987Z,3.27
2017-07-31T22:04:06.044Z,2.90
2017-07-31T22:06:35.119Z,3.30
2017-07-31T22:09:04.245Z,3.17
2017-07-31T22:11:33.271Z,3.20
2017-07-31T22:14:02.335Z,3.00
2017-07-31T22:16:36.665Z,2.87
2017-07-31T22:19:05.737Z,2.97
2017-07-31T22:21:40.163Z,3.80
2017-07-31T22:24:09.251Z,3.50
2017-07-31T22:26:38.304Z,2.83
2017-07-31T22:29:07.392Z,3.27
2017-07-31T22:31:36.442Z,3.10
2017-07-31T22:34:05.492Z,2.90
2017-07-31T22:36:34.577Z,3.97
2017-07-31T22:39:03.660Z,3.30
2017-07-31T22:41:32.938Z,3.50
2017-07-31T22:44:01.997Z,3.50
2017-07-31T22:46:31.056Z,3.53
2017-07-31T22:49:00.111Z,3.00
2017-07-31T22:51:29.188Z,2.60
2017-07-31T22:53:58.253Z,3.07
2017-07-31T22:56:27.306Z,2.63
2017-07-31T22:58:56.361Z,2.97
2017-07-31T23:01:25.472Z,2.80
2017-07-31T23:03:54.537Z,3.67
2017-07-31T23:06:50.650Z,2.87
2017-07-31T23:09:19.736Z,3.20
2017-07-31T23:11:48.824Z,3.03
2017-07-31T23:14:18.660Z,3.00
2017-07-31T23:16:47.714Z,3.20
2017-07-31T23:19:17.525Z,4.27
2017-07-31T23:21:46.611Z,3.63
2017-07-31T23:24:15.660Z,3.57
2017-07-31T23:26:44.715Z,4.10
2017-07-31T23:29:13.775Z,3.63
2017-07-31T23:31:42.845Z,4.50
2017-07-31T23:34:11.916Z,4.57
2017-07-31T23:36:41.766Z,4.10
2017-07-31T23:39:10.864Z,3.83
2017-07-31T23:41:39.924Z,3.53
2017-07-31T23:44:09.743Z,3.50
2017-07-31T23:46:39.088Z,3.30
2017-07-31T23:49:08.136Z,3.37
2017-07-31T23:51:37.213Z,3.33
2017-07-31T23:54:07.041Z,3.93
2017-07-31T23:56:36.095Z,3.83
2017-07-31T23:59:05.144Z,3.47
